Time;durP1;ratioP1;P1;durP2;ratioP2;P2;SDS_P1;SDS_P2;PMS_P1;PMS_P2;Temp;Humidity;BMP_temperature;BMP_pressure;BME280_temperature;BME280_humidity;BME280_pressure;Samples;Min_cycle;Max_cycle;Signal;HPM_P1;HPM_P2
2022/05/27 00:01:35;;;;;;;2.53;2.43;;;;;;;10.38;100.00;97539.00;4964438;28;20217;-52
2022/05/27 00:04:05;;;;;;;2.97;2.77;;;;;;;10.42;100.00;97531.56;4952118;28;20687;-53
2022/05/27 00:06:33;;;;;;;2.47;2.30;;;;;;;10.35;100.00;97531.41;4967788;28;20230;-51
2022/05/27 00:09:01;;;;;;;2.10;2.00;;;;;;;10.40;100.00;97520.31;4968213;28;20214;-51
2022/05/27 00:11:29;;;;;;;2.33;2.23;;;;;;;10.29;100.00;97534.75;4938384;28;20298;-53
2022/05/27 00:13:57;;;;;;;2.63;2.53;;;;;;;10.24;100.00;97532.63;4972013;28;20287;-51
2022/05/27 00:16:27;;;;;;;3.03;2.47;;;;;;;10.33;100.00;97522.81;4950556;28;20637;-54
2022/05/27 00:18:55;;;;;;;2.57;2.23;;;;;;;10.40;100.00;97522.97;4961995;28;20859;-53
2022/05/27 00:22:16;;;;;;;2.70;2.60;;;;;;;10.54;100.00;97516.91;4964761;28;20233;-49
2022/05/27 00:24:46;;;;;;;2.27;2.17;;;;;;;10.36;100.00;97517.16;4967090;28;20374;-49
2022/05/27 00:27:14;;;;;;;2.70;2.60;;;;;;;10.32;100.00;97518.50;4928094;28;20434;-52
2022/05/27 00:29:42;;;;;;;2.77;2.67;;;;;;;10.26;100.00;97514.75;4970249;28;20234;-53
2022/05/27 00:32:29;;;;;;;3.50;2.93;;;;;;;10.24;100.00;97518.56;4945834;28;20615;-52
2022/05/27 00:34:57;;;;;;;2.50;2.40;;;;;;;10.09;100.00;97516.66;4952847;28;20209;-48
2022/05/27 00:37:27;;;;;;;3.00;2.83;;;;;;;9.98;100.00;97517.00;4970745;28;20359;-47
2022/05/27 00:39:57;;;;;;;2.63;2.53;;;;;;;10.08;100.00;97516.81;4970970;28;20206;-51
2022/05/27 00:42:25;;;;;;;5.73;2.70;;;;;;;9.97;100.00;97510.91;4928481;28;20670;-48
2022/05/27 00:44:54;;;;;;;2.43;2.33;;;;;;;9.97;100.00;97510.91;4970208;28;20209;-51
2022/05/27 00:47:24;;;;;;;2.73;2.63;;;;;;;9.91;100.00;97510.75;4940798;28;20237;-47
2022/05/27 00:49:55;;;;;;;2.77;2.57;;;;;;;9.79;100.00;97510.31;4955894;28;20546;-56
2022/05/27 00:52:25;;;;;;;2.77;2.67;;;;;;;9.71;100.00;97503.25;4969701;28;20670;-47
2022/05/27 00:54:53;;;;;;;2.77;2.67;;;;;;;9.84;100.00;97500.03;4965549;28;20289;-48
2022/05/27 00:57:26;;;;;;;2.67;2.57;;;;;;;9.72;100.00;97496.94;4926070;28;20244;-53
2022/05/27 00:59:57;;;;;;;2.70;2.60;;;;;;;9.72;100.00;97501.41;4966840;28;20769;-49
2022/05/27 01:02:25;;;;;;;3.33;3.10;;;;;;;9.65;100.00;97498.59;4941067;28;20308;-57
2022/05/27 01:04:54;;;;;;;2.90;2.70;;;;;;;9.54;100.00;97491.88;4949753;28;20207;-52
2022/05/27 01:07:22;;;;;;;3.37;3.27;;;;;;;9.49;100.00;97489.72;4969621;28;20313;-54
2022/05/27 01:09:51;;;;;;;2.77;2.67;;;;;;;9.44;100.00;97486.78;4967334;28;20293;-49
2022/05/27 01:12:49;;;;;;;2.27;2.17;;;;;;;9.35;100.00;97478.03;4973764;28;20276;-56
2022/05/27 01:15:26;;;;;;;2.73;2.63;;;;;;;9.37;100.00;97477.88;4961148;28;20221;-51
2022/05/27 01:18:07;;;;;;;3.03;2.70;;;;;;;9.40;100.00;97477.53;4939023;28;20299;-50
2022/05/27 01:20:43;;;;;;;3.20;3.00;;;;;;;9.30;100.00;97477.72;4970343;28;20759;-50
2022/05/27 01:23:39;;;;;;;2.80;2.70;;;;;;;9.31;100.00;97467.97;4953611;28;20514;-56
2022/05/27 01:26:32;;;;;;;4.13;3.27;;;;;;;9.33;100.00;97473.91;4968286;28;20460;-54
2022/05/27 01:29:11;;;;;;;2.50;2.40;;;;;;;9.22;100.00;97470.63;4925900;28;21173;-55
2022/05/27 01:31:44;;;;;;;2.47;2.37;;;;;;;9.20;100.00;97469.97;4970762;28;20351;-50
2022/05/27 01:34:17;;;;;;;2.60;2.50;;;;;;;9.14;100.00;97468.00;4941043;28;20750;-54
2022/05/27 01:36:49;;;;;;;2.93;2.83;;;;;;;9.10;100.00;97466.69;4964931;28;20253;-50
2022/05/27 01:39:24;;;;;;;2.57;2.47;;;;;;;9.06;100.00;97468.81;4963611;28;20617;-52
2022/05/27 01:42:00;;;;;;;2.80;2.60;;;;;;;9.16;100.00;97466.00;4967486;28;20300;-48
2022/05/27 01:44:31;;;;;;;2.73;2.60;;;;;;;9.07;100.00;97465.19;4967733;28;20296;-53
2022/05/27 01:47:02;;;;;;;2.97;2.77;;;;;;;9.16;100.00;97458.06;4924979;28;20550;-56
2022/05/27 01:49:36;;;;;;;3.13;2.93;;;;;;;9.07;100.00;97461.72;4943665;28;20232;-55
2022/05/27 01:52:08;;;;;;;3.97;2.80;;;;;;;9.19;100.00;97463.03;4965374;28;20227;-54
2022/05/27 01:54:42;;;;;;;3.13;2.93;;;;;;;9.20;100.00;97467.31;4946476;28;20739;-54
2022/05/27 01:57:15;;;;;;;3.67;3.37;;;;;;;9.21;100.00;97454.94;4970630;28;20956;-54
2022/05/27 01:59:58;;;;;;;2.80;2.70;;;;;;;9.18;100.00;97456.09;4969233;28;20206;-50
2022/05/27 02:02:30;;;;;;;2.87;2.77;;;;;;;9.13;100.00;97455.78;4924971;28;20240;-54
2022/05/27 02:05:02;;;;;;;3.10;2.80;;;;;;;9.31;100.00;97458.22;4933777;28;20406;-57
2022/05/27 02:07:35;;;;;;;2.77;2.67;;;;;;;9.31;100.00;97449.47;4967070;28;20340;-54
2022/05/27 02:10:07;;;;;;;5.03;3.00;;;;;;;9.31;100.00;97441.53;4948170;28;20492;-56
2022/05/27 02:12:38;;;;;;;2.87;2.77;;;;;;;9.23;100.00;97445.00;4965849;28;20293;-55
2022/05/27 02:15:09;;;;;;;2.93;2.73;;;;;;;9.37;100.00;97446.13;4966155;28;20530;-55
2022/05/27 02:17:42;;;;;;;3.33;3.03;;;;;;;9.40;100.00;97443.16;4924937;28;20234;-51
2022/05/27 02:20:14;;;;;;;2.50;2.40;;;;;;;9.40;100.00;97435.22;4945623;28;20313;-54
2022/05/27 02:22:45;;;;;;;2.73;2.63;;;;;;;9.41;100.00;97442.97;4966014;28;20623;-49
2022/05/27 02:25:15;;;;;;;2.77;2.60;;;;;;;9.29;100.00;97444.34;4953827;28;20202;-54
2022/05/27 02:27:48;;;;;;;3.10;2.90;;;;;;;9.27;100.00;97430.47;4964254;28;20324;-48
2022/05/27 02:30:18;;;;;;;3.07;2.87;;;;;;;9.29;100.00;97436.41;4966594;28;20746;-51
2022/05/27 02:35:07;;;;;;;3.20;3.00;;;;;;;9.28;100.00;97434.75;4946042;28;20256;-49
2022/05/27 02:35:38;;;;;;;2.77;2.67;;;;;;;9.26;100.00;97436.75;4921804;28;20909;-48
2022/05/27 02:38:06;;;;;;;2.97;2.83;;;;;;;9.45;100.00;97435.53;4972920;28;20219;-52
2022/05/27 02:40:39;;;;;;;5.23;3.07;;;;;;;9.51;100.00;97432.19;4953849;28;20290;-51
2022/05/27 02:43:11;;;;;;;3.00;2.83;;;;;;;9.53;100.00;97432.84;4972763;28;20718;-52
2022/05/27 02:45:42;;;;;;;3.37;3.17;;;;;;;9.37;100.00;97430.28;4964992;28;20201;-53
2022/05/27 02:48:19;;;;;;;2.97;2.80;;;;;;;9.28;100.00;97434.75;4968555;28;20225;-50
2022/05/27 02:50:52;;;;;;;2.60;2.50;;;;;;;9.24;100.00;97436.09;4928160;28;20835;-49
2022/05/27 02:53:25;;;;;;;3.20;3.00;;;;;;;9.21;100.00;97434.59;4944419;28;20740;-48
2022/05/27 02:56:04;;;;;;;3.37;3.13;;;;;;;9.31;100.00;97437.06;4953466;28;20860;-50
2022/05/27 02:58:32;;;;;;;2.97;2.77;;;;;;;9.33;100.00;97440.34;4941859;28;20213;-48
2022/05/27 03:01:01;;;;;;;3.13;2.93;;;;;;;9.25;100.00;97443.03;4968943;28;20547;-50
2022/05/27 03:03:31;;;;;;;3.83;3.27;;;;;;;9.22;100.00;97436.25;4963876;28;20265;-51
2022/05/27 03:06:19;;;;;;;4.60;3.00;;;;;;;9.04;100.00;97436.44;4929012;28;20243;-50
2022/05/27 03:08:59;;;;;;;2.97;2.87;;;;;;;9.15;100.00;97434.47;4942345;28;20312;-50
2022/05/27 03:11:36;;;;;;;2.97;2.77;;;;;;;9.05;100.00;97434.66;4935005;28;20237;-50
2022/05/27 03:14:22;;;;;;;3.50;3.30;;;;;;;9.12;100.00;97440.91;4967959;28;20653;-53
2022/05/27 03:16:58;;;;;;;3.40;3.20;;;;;;;9.10;100.00;97440.25;4966169;28;20253;-55
2022/05/27 03:19:50;;;;;;;3.30;3.10;;;;;;;9.09;100.00;97433.31;4941595;28;20912;-53
2022/05/27 03:22:27;;;;;;;4.63;3.63;;;;;;;9.00;100.00;97435.13;4961374;28;20292;-52
2022/05/27 03:25:09;;;;;;;3.70;3.30;;;;;;;8.91;100.00;97431.69;4942509;28;20229;-49
2022/05/27 03:27:41;;;;;;;3.37;3.17;;;;;;;8.93;100.00;97436.81;4945337;28;20493;-47
2022/05/27 03:30:14;;;;;;;3.60;3.40;;;;;;;8.94;100.00;97435.81;4968550;28;20445;-50
2022/05/27 03:32:48;;;;;;;2.90;2.80;;;;;;;8.91;100.00;97429.06;4943483;28;20559;-50
2022/05/27 03:35:23;;;;;;;3.87;3.37;;;;;;;8.98;100.00;97429.19;4936341;28;20225;-49
2022/05/27 03:37:55;;;;;;;3.53;3.33;;;;;;;9.15;100.00;97421.25;4970518;28;20608;-47
2022/05/27 03:40:27;;;;;;;3.80;3.60;;;;;;;8.99;100.00;97428.19;4939397;28;20569;-53
2022/05/27 03:42:57;;;;;;;3.50;3.30;;;;;;;8.95;100.00;97429.53;4965183;28;20214;-52
2022/05/27 03:45:25;;;;;;;3.83;3.50;;;;;;;8.92;100.00;97425.41;4963075;28;20201;-50
2022/05/27 03:47:54;;;;;;;3.57;3.30;;;;;;;9.02;100.00;97422.56;4965720;28;20293;-48
2022/05/27 03:50:25;;;;;;;4.00;3.70;;;;;;;9.08;100.00;97415.81;4951897;28;20402;-56
2022/05/27 03:52:56;;;;;;;5.33;4.20;;;;;;;9.04;100.00;97417.13;4965050;28;20554;-48
2022/05/27 03:55:27;;;;;;;3.73;3.43;;;;;;;9.14;100.00;97422.25;4916647;28;20369;-49
2022/05/27 03:57:55;;;;;;;3.40;3.20;;;;;;;9.27;100.00;97423.34;4953090;28;20213;-53
2022/05/27 04:00:24;;;;;;;3.40;3.20;;;;;;;9.37;100.00;97419.69;4936489;28;20233;-52
2022/05/27 04:02:52;;;;;;;4.00;3.70;;;;;;;9.45;100.00;97417.00;4961337;28;20210;-53
2022/05/27 04:05:26;;;;;;;3.60;3.30;;;;;;;9.56;100.00;97423.75;4921574;28;20244;-49
2022/05/27 04:07:54;;;;;;;3.87;3.57;;;;;;;9.50;100.00;97435.84;4934297;28;20786;-53
2022/05/27 04:10:22;;;;;;;4.77;4.47;;;;;;;9.63;100.00;97434.47;4944851;28;20211;-50
2022/05/27 04:12:51;;;;;;;3.13;3.03;;;;;;;9.68;100.00;97425.03;4956096;28;20217;-53
2022/05/27 04:15:19;;;;;;;3.47;3.27;;;;;;;9.88;100.00;97429.91;4955315;28;20364;-50
2022/05/27 04:17:48;;;;;;;3.27;3.07;;;;;;;9.97;100.00;97425.38;4967032;28;20260;-56
2022/05/27 04:20:20;;;;;;;5.90;3.50;;;;;;;10.09;100.00;97413.41;4950838;28;20352;-49
2022/05/27 04:22:54;;;;;;;3.60;3.40;;;;;;;10.20;100.00;97412.16;4932308;28;20296;-55
2022/05/27 04:25:23;;;;;;;3.30;3.20;;;;;;;10.42;100.00;97415.84;4944327;28;20201;-50
2022/05/27 04:27:52;;;;;;;4.00;3.70;;;;;;;10.39;100.00;97424.09;4958575;28;20364;-50
2022/05/27 04:30:20;;;;;;;3.50;3.27;;;;;;;10.37;100.00;97423.47;4965107;28;20209;-48
2022/05/27 04:32:48;;;;;;;3.50;3.30;;;;;;;10.32;100.00;97425.81;4949831;28;20305;-53
2022/05/27 04:35:16;;;;;;;3.67;3.03;;;;;;;10.48;100.00;97416.16;4969516;28;20809;-48
2022/05/27 04:37:44;;;;;;;3.50;3.20;;;;;;;10.64;100.00;97423.94;4935069;28;20235;-56
2022/05/27 04:40:14;;;;;;;3.13;2.80;;;;;;;10.75;100.00;97421.88;4971659;28;20209;-49
2022/05/27 04:42:43;;;;;;;3.10;2.90;;;;;;;10.90;100.00;97428.03;4944130;28;20230;-56
2022/05/27 04:45:11;;;;;;;3.47;3.00;;;;;;;11.03;100.00;97422.13;4968210;28;20653;-51
2022/05/27 04:47:39;;;;;;;3.13;2.87;;;;;;;11.10;100.00;97406.28;4953250;28;23123;-52
2022/05/27 04:50:09;;;;;;;3.30;3.00;;;;;;;11.21;100.00;97420.94;4967958;28;20241;-51
2022/05/27 04:52:38;;;;;;;2.90;2.70;;;;;;;11.19;100.00;97423.78;4931055;28;20415;-52
2022/05/27 04:55:09;;;;;;;2.80;2.60;;;;;;;11.40;100.00;97414.28;4971458;28;20229;-51
2022/05/27 04:57:40;;;;;;;3.27;2.90;;;;;;;11.47;100.00;97409.06;4947677;28;20590;-53
2022/05/27 05:00:11;;;;;;;4.33;2.73;;;;;;;11.61;100.00;97402.09;4971696;28;20327;-51
2022/05/27 05:02:41;;;;;;;2.80;2.60;;;;;;;11.83;100.00;97395.00;4973018;28;20426;-50
2022/05/27 05:05:13;;;;;;;3.33;3.03;;;;;;;11.95;100.00;97398.81;4958306;28;20290;-49
2022/05/27 05:07:42;;;;;;;3.37;3.17;;;;;;;12.11;100.00;97403.09;4936766;28;21455;-54
2022/05/27 05:10:11;;;;;;;2.70;2.60;;;;;;;12.10;100.00;97409.41;4971875;28;20220;-49
2022/05/27 05:12:41;;;;;;;2.70;2.60;;;;;;;12.31;100.00;97399.81;4944589;28;21627;-55
2022/05/27 05:15:11;;;;;;;5.43;3.37;;;;;;;12.31;100.00;97399.81;4976127;28;20317;-49
2022/05/27 05:17:39;;;;;;;3.53;3.27;;;;;;;12.37;100.00;97404.38;4968604;28;20382;-54
2022/05/27 05:20:09;;;;;;;2.80;2.60;;;;;;;12.65;100.00;97410.75;4941460;28;20415;-50
2022/05/27 05:22:37;;;;;;;2.73;2.53;;;;;;;12.58;100.00;97406.22;4966812;28;20253;-56
2022/05/27 05:25:07;;;;;;;3.17;2.97;;;;;;;12.76;100.00;97407.56;4921849;28;20339;-54
2022/05/27 05:27:38;;;;;;;2.80;2.60;;;;;;;12.90;100.00;97405.84;4971970;28;20311;-52
2022/05/27 05:30:10;;;;;;;3.07;2.87;;;;;;;12.76;100.00;97406.75;4925314;28;20744;-48
2022/05/27 05:32:39;;;;;;;3.10;2.80;;;;;;;12.94;100.00;97407.09;4971053;28;20210;-53
2022/05/27 05:35:08;;;;;;;2.80;2.57;;;;;;;13.12;100.00;97408.44;4959111;28;20490;-50
2022/05/27 05:37:36;;;;;;;3.23;2.97;;;;;;;13.20;100.00;97402.13;4970355;28;20228;-51
2022/05/27 05:40:08;;;;;;;2.90;2.60;;;;;;;13.55;100.00;97404.81;4924007;28;20717;-52
2022/05/27 05:42:38;;;;;;;3.97;3.17;;;;;;;13.48;100.00;97406.63;4968271;28;20575;-49
2022/05/27 05:45:08;;;;;;;2.70;2.50;;;;;;;13.69;100.00;97411.03;4947267;28;20228;-51
2022/05/27 05:47:37;;;;;;;3.10;2.80;;;;;;;13.58;100.00;97404.41;4968345;28;20429;-52
2022/05/27 05:50:06;;;;;;;2.67;2.57;;;;;;;13.61;100.00;97406.69;4969802;28;20244;-51
2022/05/27 05:52:34;;;;;;;2.93;2.70;;;;;;;13.86;100.00;97401.69;4956887;28;20760;-50
2022/05/27 05:55:03;;;;;;;2.50;2.30;;;;;;;13.99;100.00;97400.06;4935918;28;20212;-50
2022/05/27 05:57:32;;;;;;;3.33;2.93;;;;;;;14.11;100.00;97397.66;4952388;28;20231;-50
2022/05/27 06:00:00;;;;;;;3.10;2.90;;;;;;;14.58;100.00;97405.69;4950103;28;20304;-48
2022/05/27 06:02:30;;;;;;;3.17;2.20;;;;;;;14.58;100.00;97411.03;4968891;28;20418;-53
2022/05/27 06:04:58;;;;;;;4.27;2.60;;;;;;;14.88;100.00;97418.66;4971102;28;20233;-54
2022/05/27 06:07:30;;;;;;;2.70;2.00;;;;;;;15.05;100.00;97413.72;4949730;28;20238;-56
2022/05/27 06:09:58;;;;;;;2.17;2.07;;;;;;;14.86;100.00;97404.72;4970813;28;20300;-51
2022/05/27 06:12:26;;;;;;;3.73;2.37;;;;;;;14.84;100.00;97404.94;4930607;28;20379;-53
2022/05/27 06:14:55;;;;;;;3.90;2.70;;;;;;;15.00;100.00;97403.69;4945878;28;20670;-55
2022/05/27 06:17:25;;;;;;;4.30;2.50;;;;;;;15.19;100.00;97404.69;4969354;28;20225;-49
2022/05/27 06:19:54;;;;;;;2.33;2.23;;;;;;;15.45;100.00;97402.16;4971289;28;20678;-52
2022/05/27 06:22:22;;;;;;;2.23;2.07;;;;;;;15.51;100.00;97400.50;4951208;28;20472;-50
2022/05/27 06:24:51;;;;;;;2.63;2.43;;;;;;;15.68;100.00;97404.34;4972794;28;20202;-49
2022/05/27 06:27:20;;;;;;;3.57;2.00;;;;;;;15.74;100.00;97400.03;4936411;28;20238;-53
2022/05/27 06:35:20;;;;;;;2.50;2.30;;;;;;;15.83;100.00;97397.91;4966762;28;20301;-52
2022/05/27 06:37:49;;;;;;;2.00;1.90;;;;;;;15.76;100.00;97412.13;4956999;28;20288;-54
2022/05/27 06:40:17;;;;;;;2.57;2.37;;;;;;;15.70;100.00;97418.31;4967719;28;20267;-53
2022/05/27 06:42:46;;;;;;;2.30;2.20;;;;;;;15.55;100.00;97413.22;4936325;28;20810;-56
2022/05/27 06:45:14;;;;;;;2.40;2.30;;;;;;;15.41;100.00;97422.31;4969159;28;20211;-51
2022/05/27 06:47:42;;;;;;;2.67;2.47;;;;;;;15.25;100.00;97413.69;4943668;28;20352;-53
2022/05/27 06:50:11;;;;;;;4.27;2.70;;;;;;;15.33;100.00;97421.47;4968010;28;20612;-52
2022/05/27 06:52:41;;;;;;;2.50;2.30;;;;;;;15.22;100.00;97415.97;4953342;28;20701;-57
2022/05/27 06:55:10;;;;;;;4.67;2.57;;;;;;;15.23;100.00;97410.41;4968718;28;20238;-51
2022/05/27 06:57:38;;;;;;;3.57;2.73;;;;;;;15.14;100.00;97407.16;4934574;28;20757;-54
2022/05/27 07:00:10;;;;;;;2.53;2.33;;;;;;;15.05;100.00;97411.06;4968562;28;20339;-49
2022/05/27 07:02:38;;;;;;;2.87;2.67;;;;;;;15.14;100.00;97401.81;4943851;28;20454;-53
2022/05/27 07:05:08;;;;;;;4.40;2.77;;;;;;;15.27;100.00;97408.16;4971571;28;20261;-49
2022/05/27 07:07:36;;;;;;;2.50;2.30;;;;;;;15.28;100.00;97407.94;4966703;28;20327;-49
2022/05/27 07:10:07;;;;;;;3.20;2.93;;;;;;;15.25;100.00;97412.91;4954521;28;20697;-52
2022/05/27 07:12:37;;;;;;;2.50;2.30;;;;;;;15.24;100.00;97411.25;4965648;28;20210;-56
2022/05/27 07:15:06;;;;;;;2.17;2.07;;;;;;;15.20;100.00;97413.50;4932842;28;20487;-55
2022/05/27 07:17:34;;;;;;;2.53;2.30;;;;;;;15.21;100.00;97409.00;4965673;28;20234;-53
2022/05/27 07:20:03;;;;;;;2.63;2.43;;;;;;;15.34;100.00;97399.13;4947966;28;20201;-51
2022/05/27 07:22:31;;;;;;;2.17;2.07;;;;;;;15.37;100.00;97413.09;4967017;28;20202;-49
2022/05/27 07:25:00;;;;;;;3.10;2.50;;;;;;;15.42;100.00;97402.59;4953412;28;20237;-58
2022/05/27 07:27:30;;;;;;;3.03;2.40;;;;;;;15.44;100.00;97401.34;4964842;28;20238;-49
2022/05/27 07:29:58;;;;;;;3.20;3.00;;;;;;;15.43;100.00;97405.03;4931454;28;20308;-54
2022/05/27 07:32:26;;;;;;;3.00;2.80;;;;;;;15.53;100.00;97409.94;4963589;28;20418;-54
2022/05/27 07:34:54;;;;;;;3.30;2.27;;;;;;;15.37;100.00;97416.56;4946852;28;20456;-49
2022/05/27 07:37:23;;;;;;;2.80;2.60;;;;;;;15.51;100.00;97416.50;4964501;28;20268;-51
2022/05/27 07:39:51;;;;;;;2.87;2.67;;;;;;;15.25;100.00;97415.56;4953973;28;20263;-52
2022/05/27 07:42:19;;;;;;;2.67;2.47;;;;;;;15.24;100.00;97419.25;4964499;28;20342;-53
2022/05/27 07:44:50;;;;;;;2.90;2.70;;;;;;;15.19;100.00;97410.03;4969294;28;20547;-53
2022/05/27 07:47:19;;;;;;;2.60;2.37;;;;;;;15.02;100.00;97412.31;4928793;28;20465;-50
2022/05/27 07:49:48;;;;;;;3.53;3.10;;;;;;;15.01;100.00;97408.00;4943409;28;20245;-55
2022/05/27 07:52:16;;;;;;;3.00;2.80;;;;;;;15.26;100.00;97399.31;4967067;28;20202;-49
2022/05/27 07:54:44;;;;;;;3.20;2.97;;;;;;;15.68;100.00;97385.66;4967867;28;20557;-55
2022/05/27 07:57:26;;;;;;;3.17;2.97;;;;;;;16.08;100.00;97390.00;4949207;28;20299;-49
2022/05/27 08:00:04;;;;;;;4.57;3.30;;;;;;;16.61;100.00;97383.47;4967478;28;20373;-54
2022/05/27 08:02:33;;;;;;;2.63;2.53;;;;;;;16.64;100.00;97391.06;4931267;28;20228;-57
2022/05/27 08:05:01;;;;;;;3.47;3.17;;;;;;;16.75;100.00;97394.09;4966925;28;20344;-54
2022/05/27 08:07:29;;;;;;;3.53;3.23;;;;;;;16.82;100.00;97381.47;4942453;28;20757;-53
2022/05/27 08:09:57;;;;;;;3.43;3.23;;;;;;;16.67;100.00;97395.16;4967833;28;20280;-52
2022/05/27 08:12:25;;;;;;;3.10;2.70;;;;;;;16.76;100.00;97387.69;4948434;28;20255;-54
2022/05/27 08:14:53;;;;;;;3.47;3.00;;;;;;;16.63;100.00;97386.75;4965269;28;20322;-58
2022/05/27 08:17:24;;;;;;;4.43;3.53;;;;;;;16.63;100.00;97396.66;4935268;28;20641;-51
2022/05/27 08:19:52;;;;;;;4.57;3.10;;;;;;;16.63;100.00;97394.78;4966541;28;20447;-57
2022/05/27 08:22:21;;;;;;;4.97;3.67;;;;;;;16.49;100.00;97393.25;4940118;28;20316;-49
2022/05/27 08:24:49;;;;;;;3.80;3.50;;;;;;;16.42;100.00;97395.97;4967628;28;20232;-52
2022/05/27 08:27:17;;;;;;;3.07;2.87;;;;;;;16.32;100.00;97385.75;4951455;28;20273;-51
2022/05/27 08:29:45;;;;;;;3.50;2.83;;;;;;;16.33;100.00;97391.91;4962924;28;21112;-49
2022/05/27 08:32:13;;;;;;;5.10;3.03;;;;;;;16.24;100.00;97391.34;4968058;28;20962;-51
2022/05/27 08:40:22;;;;;;;4.40;3.30;;;;;;;16.38;100.00;97384.06;4973998;28;20827;-52
2022/05/27 08:42:57;;;;;;;3.63;2.83;;;;;;;16.77;100.00;97392.81;4956180;28;20315;-49
2022/05/27 08:45:32;;;;;;;5.07;3.23;;;;;;;16.92;100.00;97381.78;4972452;28;20205;-48
2022/05/27 08:48:03;;;;;;;3.47;3.17;;;;;;;17.02;100.00;97384.00;4932051;28;20303;-51
2022/05/27 08:50:37;;;;;;;4.40;3.07;;;;;;;16.90;100.00;97378.50;4969224;28;20730;-55
2022/05/27 08:53:13;;;;;;;3.40;3.20;;;;;;;16.72;100.00;97376.59;4941993;28;20482;-52
2022/05/27 09:01:21;;;;;;;4.97;3.20;;;;;;;16.60;100.00;97381.03;4971814;28;20205;-53
2022/05/27 09:03:54;;;;;;;4.63;3.10;;;;;;;17.07;100.00;97384.16;4934597;28;20248;-54
2022/05/27 09:06:28;;;;;;;3.13;2.70;;;;;;;17.10;100.00;97379.38;4969823;28;20245;-51
2022/05/27 09:09:08;;;;;;;2.50;2.40;;;;;;;16.57;100.00;97378.78;4941515;28;20421;-49
2022/05/27 09:11:43;;;;;;;3.40;3.00;;;;;;;16.68;100.00;97374.59;4973730;28;20208;-49
2022/05/27 09:14:20;;;;;;;3.00;2.80;;;;;;;16.25;100.00;97381.50;4954920;28;20744;-48
2022/05/27 09:16:55;;;;;;;3.40;2.93;;;;;;;16.69;100.00;97381.59;4968891;28;20236;-51
2022/05/27 09:19:48;;;;;;;6.30;3.80;;;;;;;17.16;100.00;97389.19;4933922;28;20227;-51
2022/05/27 09:22:27;;;;;;;3.23;3.03;;;;;;;17.35;100.00;97377.47;4948279;28;20808;-55
2022/05/27 09:25:07;;;;;;;3.40;3.10;;;;;;;17.43;100.00;97380.91;4967270;28;20233;-50
2022/05/27 09:27:42;;;;;;;2.97;2.83;;;;;;;17.52;100.00;97376.06;4967625;28;20237;-52
2022/05/27 09:30:13;;;;;;;3.37;3.10;;;;;;;17.61;100.00;97372.03;4956161;28;20292;-56
2022/05/27 09:32:47;;;;;;;3.03;2.80;;;;;;;17.40;100.00;97378.66;4969253;28;20212;-50
2022/05/27 09:35:19;;;;;;;3.20;2.57;;;;;;;17.35;100.00;97372.13;4926519;28;20733;-49
2022/05/27 09:38:11;;;;;;;3.57;2.57;;;;;;;17.81;100.00;97373.66;4943037;28;20297;-54
2022/05/27 09:40:43;;;;;;;3.33;2.90;;;;;;;17.85;100.00;97378.31;4972249;28;20228;-48
2022/05/27 09:43:15;;;;;;;2.70;2.57;;;;;;;17.97;100.00;97366.81;4968317;28;20493;-52
2022/05/27 09:45:44;;;;;;;3.27;2.97;;;;;;;17.89;100.00;97371.47;4955650;28;20574;-48
2022/05/27 09:48:12;;;;;;;3.13;2.90;;;;;;;17.70;100.00;97367.19;4973516;28;20312;-52
2022/05/27 09:50:43;;;;;;;2.90;2.70;;;;;;;18.02;100.00;97362.47;4932931;28;20225;-50
2022/05/27 09:53:17;;;;;;;3.20;3.00;;;;;;;18.19;100.00;97354.59;4944637;28;20221;-48
2022/05/27 09:55:50;;;;;;;3.93;2.77;;;;;;;18.34;100.00;97342.59;4969822;28;20225;-48
2022/05/27 09:58:25;;;;;;;3.03;2.73;;;;;;;18.16;100.00;97348.84;4967798;28;20785;-56
2022/05/27 10:00:53;;;;;;;3.13;2.90;;;;;;;18.10;100.00;97344.41;4954631;28;20744;-54
2022/05/27 10:03:28;;;;;;;2.80;2.60;;;;;;;18.31;100.00;97337.69;4964822;28;20238;-49
2022/05/27 10:06:00;;;;;;;2.80;2.60;;;;;;;18.39;100.00;97342.75;4933785;28;20324;-49
2022/05/27 10:08:43;;;;;;;3.10;2.93;;;;;;;18.16;100.00;97336.28;4946594;28;20215;-56
2022/05/27 10:11:23;;;;;;;4.90;3.33;;;;;;;18.11;100.00;97324.59;4970140;28;20491;-52
2022/05/27 10:14:18;;;;;;;2.80;2.70;;;;;;;18.26;100.00;97318.81;4952505;28;20661;-51
2022/05/27 10:17:01;;;;;;;3.93;3.63;;;;;;;18.60;100.00;97327.97;4969497;28;20222;-49
2022/05/27 10:19:29;;;;;;;4.33;3.80;;;;;;;18.57;100.00;97322.25;4969978;28;20231;-52
2022/05/27 10:21:59;;;;;;;3.40;3.03;;;;;;;18.59;100.00;97333.56;4930676;28;20206;-50
2022/05/27 10:24:30;;;;;;;4.43;3.57;;;;;;;18.94;99.66;97322.00;4944066;28;20717;-52
2022/05/27 10:27:08;;;;;;;3.13;2.97;;;;;;;19.08;100.00;97326.09;4967877;28;20904;-53
2022/05/27 10:29:50;;;;;;;3.40;2.90;;;;;;;19.16;100.00;97329.50;4972752;28;20709;-49
2022/05/27 10:32:28;;;;;;;3.27;3.07;;;;;;;19.00;100.00;97325.66;4964792;28;20300;-55
2022/05/27 10:34:57;;;;;;;3.20;3.00;;;;;;;18.63;100.00;97330.19;4966991;28;20205;-48
2022/05/27 10:37:54;;;;;;;3.10;2.90;;;;;;;18.49;100.00;97336.81;4967701;28;20671;-57
2022/05/27 10:40:33;;;;;;;3.10;2.90;;;;;;;18.49;100.00;97326.91;4945565;28;21261;-52
2022/05/27 10:43:13;;;;;;;3.10;2.80;;;;;;;18.92;100.00;97330.28;4964914;28;20324;-53
2022/05/27 10:45:47;;;;;;;3.50;3.13;;;;;;;19.33;94.13;97329.59;4957338;28;20221;-48
2022/05/27 10:48:32;;;;;;;3.10;2.90;;;;;;;19.35;95.59;97336.34;4971898;28;20747;-54
2022/05/27 10:51:08;;;;;;;3.60;3.40;;;;;;;18.78;98.83;97316.31;4963575;28;20404;-54
2022/05/27 10:54:09;;;;;;;3.77;3.40;;;;;;;18.81;98.71;97320.38;4938339;28;20222;-55
2022/05/27 10:56:42;;;;;;;3.97;3.27;;;;;;;18.21;100.00;97314.16;4943637;28;20234;-54
2022/05/27 11:02:26;;;;;;;3.57;3.27;;;;;;;18.71;100.00;97304.84;4933983;28;20324;-56
2022/05/27 11:05:24;;;;;;;3.17;2.87;;;;;;;19.31;100.00;97302.13;4969842;28;20299;-48
2022/05/27 11:08:10;;;;;;;3.13;3.00;;;;;;;20.30;92.56;97302.09;4967289;28;20201;-50
2022/05/27 11:10:45;;;;;;;2.90;2.70;;;;;;;20.32;90.66;97294.59;4908777;28;20221;-52
2022/05/27 11:16:37;;;;;;;2.90;2.70;;;;;;;21.52;76.38;97297.88;4951640;28;20234;-53
2022/05/27 11:19:26;;;;;;;2.50;2.40;;;;;;;21.92;73.70;97291.31;4967126;28;20524;-55
2022/05/27 11:22:08;;;;;;;2.90;2.80;;;;;;;21.07;85.89;97278.19;4965806;28;20206;-50
2022/05/27 11:25:04;;;;;;;5.57;3.10;;;;;;;21.43;76.57;97284.00;4933691;28;20265;-56
2022/05/27 11:27:41;;;;;;;2.83;2.67;;;;;;;21.27;77.54;97284.91;4934094;28;20718;-53
2022/05/27 11:30:21;;;;;;;3.30;3.10;;;;;;;20.54;83.91;97284.69;4970491;28;20745;-56
2022/05/27 11:33:02;;;;;;;2.67;2.53;;;;;;;20.66;82.07;97286.50;4951037;28;20205;-50
2022/05/27 11:35:50;;;;;;;2.60;2.40;;;;;;;20.49;83.21;97281.94;4968067;28;20236;-55
2022/05/27 11:38:36;;;;;;;2.90;2.70;;;;;;;20.15;88.90;97273.84;4964685;28;20241;-51
2022/05/27 11:41:10;;;;;;;2.50;2.20;;;;;;;20.22;88.19;97279.88;4904340;28;20954;-51
2022/05/27 11:43:47;;;;;;;2.60;2.50;;;;;;;20.81;84.90;97275.97;4967694;28;20422;-49
2022/05/27 11:46:31;;;;;;;2.17;2.07;;;;;;;20.99;81.92;97281.31;4966487;28;20231;-52
2022/05/27 11:49:13;;;;;;;2.80;2.60;;;;;;;20.50;83.75;97286.25;4950230;28;21138;-50
2022/05/27 11:51:48;;;;;;;4.10;2.00;;;;;;;20.53;83.95;97296.53;4969570;28;20782;-53
2022/05/27 11:54:26;;;;;;;2.37;2.17;;;;;;;20.61;86.26;97279.16;4966696;28;20352;-53
2022/05/27 11:57:04;;;;;;;2.10;2.00;;;;;;;21.53;74.92;97280.63;4915129;28;20264;-53
2022/05/27 11:59:36;;;;;;;2.40;2.07;;;;;;;21.70;74.88;97283.25;4965563;28;20260;-52
2022/05/27 12:02:17;;;;;;;2.17;2.07;;;;;;;21.74;72.66;97284.38;4967427;28;20299;-56
2022/05/27 12:04:53;;;;;;;2.30;2.07;;;;;;;21.22;73.60;97278.41;4967425;28;20209;-49
2022/05/27 12:07:32;;;;;;;1.90;1.80;;;;;;;20.89;76.94;97281.97;4970243;28;20225;-54
2022/05/27 12:10:08;;;;;;;2.27;2.17;;;;;;;21.35;72.98;97277.19;4925998;28;20715;-58
2022/05/27 12:12:46;;;;;;;1.53;1.53;;;;;;;21.95;70.80;97276.47;4941467;28;20847;-52
2022/05/27 12:15:19;;;;;;;1.97;1.87;;;;;;;21.55;72.80;97276.59;4967498;28;20919;-52
2022/05/27 12:17:51;;;;;;;2.63;2.43;;;;;;;20.83;73.79;97270.31;4965894;28;20295;-49
2022/05/27 12:20:23;;;;;;;2.50;2.40;;;;;;;20.47;79.58;97278.66;4953079;28;20248;-50